Stottfjord — LMCE — position and weather

sailwx.info

Track history (hours):
 
Tides and Currents Weather Stations Pressure Air Temp Water Temp Dewpoint Dewpoint Depression Visibility Wind Speed Wind Dir Waves Ship Positions

Stottfjord

Last reported at 2017-Feb-22 15:20 UTC. Time now 2017-Feb-23 11:38 UTC.
Position N 69°23' E 016°04'.

Length 28 m; draft 5.3 m.

Type: Fishing. MMSI: 257580600.

Date/timePositionNaut miles runAvg speedWind from/ knotsBaromVisibWave heightAir tempDewpointWater temp
2017-Feb-22 15:20N 69°23' E 016°04'2 1.1
2017-Feb-22 13:17N 69°24' E 016°09'1 1.2
2017-Feb-22 12:27N 69°24' E 016°06'0 0.0
2017-Feb-22 11:13N 69°24' E 016°06'1 1.5
2017-Feb-22 10:31N 69°24' E 016°03'106 2.6
2017-Feb-20 17:23N 67°44' E 014°31'16 8.7
2017-Feb-20 15:33N 67°28' E 014°28'9 8.7
2017-Feb-20 14:33N 67°20' E 014°23'2 2.4
2017-Feb-20 13:33N 67°17' E 014°23'0 0.1
2017-Feb-20 12:33N 67°17' E 014°23'0 0.1
2017-Feb-20 11:33N 67°17' E 014°23'0 0.0
2017-Feb-20 10:33N 67°17' E 014°23'0 0.0
2017-Feb-20 09:33N 67°17' E 014°23'0 0.0
2017-Feb-20 08:33N 67°17' E 014°23'0 0.0
2017-Feb-20 07:33N 67°17' E 014°23'0 0.0
2017-Feb-20 06:33N 67°17' E 014°23'0 0.0
2017-Feb-20 05:33N 67°17' E 014°23'0 0.0
2017-Feb-20 04:33N 67°17' E 014°23'0 0.0
2017-Feb-20 03:33N 67°17' E 014°23'0 0.0
2017-Feb-20 02:33N 67°17' E 014°23'0 0.0
2017-Feb-20 01:33N 67°17' E 014°23'0 0.0
2017-Feb-20 00:33N 67°17' E 014°23'0 0.0
2017-Feb-19 23:33N 67°17' E 014°23'0 0.0
2017-Feb-19 22:33N 67°17' E 014°23'0 0.0
2017-Feb-19 21:33N 67°17' E 014°23'0 0.0
2017-Feb-19 20:33N 67°17' E 014°23'0 0.0
2017-Feb-19 19:33N 67°17' E 014°23'0 0.0
2017-Feb-19 18:33N 67°17' E 014°23'0 0.0
2017-Feb-19 17:33N 67°17' E 014°23'0 0.0
2017-Feb-19 16:33N 67°17' E 014°23'0 0.0
2017-Feb-19 15:33N 67°17' E 014°23'0 0.0
2017-Feb-19 14:30N 67°17' E 014°23'0 0.0
2017-Feb-19 13:33N 67°17' E 014°23'0 0.0
2017-Feb-19 12:33N 67°17' E 014°23'0 0.0
2017-Feb-19 11:33N 67°17' E 014°23'0 0.0
2017-Feb-19 10:33N 67°17' E 014°23'0 0.0
2017-Feb-19 09:33N 67°17' E 014°23'0 0.0
2017-Feb-19 08:33N 67°17' E 014°23'0 0.0
2017-Feb-19 07:33N 67°17' E 014°23'0 0.0
2017-Feb-19 06:33N 67°17' E 014°23'0 0.0
2017-Feb-19 05:33N 67°17' E 014°23'0 0.0
2017-Feb-19 04:33N 67°17' E 014°23'0 0.0
2017-Feb-19 03:33N 67°17' E 014°23'0 0.0
2017-Feb-19 02:33N 67°17' E 014°23'0 0.0
2017-Feb-19 01:33N 67°17' E 014°23'0 0.0
2017-Feb-19 00:33N 67°17' E 014°23'0 0.0
2017-Feb-18 23:33N 67°17' E 014°23'0 0.0
2017-Feb-18 22:33N 67°17' E 014°23'0 0.0
2017-Feb-18 21:33N 67°17' E 014°23'0 0.0
2017-Feb-18 20:33N 67°17' E 014°23'0 0.0
2017-Feb-18 19:33N 67°17' E 014°23'0 0.0
2017-Feb-18 18:33N 67°17' E 014°23'0 0.0
2017-Feb-18 17:33N 67°17' E 014°23'0 0.0
2017-Feb-18 16:33N 67°17' E 014°23'0 0.0
2017-Feb-18 15:33N 67°17' E 014°23'0 0.0
2017-Feb-18 14:33N 67°17' E 014°23'0 0.0
2017-Feb-18 13:33N 67°17' E 014°23'0 0.0
2017-Feb-18 12:33N 67°17' E 014°23'0 0.0
2017-Feb-18 11:33N 67°17' E 014°23'0 0.0
2017-Feb-18 10:33N 67°17' E 014°23'0 0.0
2017-Feb-18 09:33N 67°17' E 014°23'0 0.0
2017-Feb-18 08:33N 67°17' E 014°23'0 0.0
2017-Feb-18 07:33N 67°17' E 014°23'0 0.0
2017-Feb-18 06:33N 67°17' E 014°23'0 0.0
2017-Feb-18 05:33N 67°17' E 014°23'0 0.0
2017-Feb-18 04:33N 67°17' E 014°23'0 0.0
2017-Feb-18 03:33N 67°17' E 014°23'0 0.0
2017-Feb-18 02:33N 67°17' E 014°23'0 0.0
2017-Feb-18 01:33N 67°17' E 014°23'0 0.0
2017-Feb-18 00:33N 67°17' E 014°23'0 0.0
2017-Feb-17 23:33N 67°17' E 014°23'0 0.0
2017-Feb-17 22:33N 67°17' E 014°23'0 0.0
2017-Feb-17 21:33N 67°17' E 014°23'0 0.0
2017-Feb-17 20:33N 67°17' E 014°23'0 0.0
2017-Feb-17 19:33N 67°17' E 014°23'0 0.0
2017-Feb-17 18:33N 67°17' E 014°23'0 0.0
2017-Feb-17 17:33N 67°17' E 014°23'0 0.0
2017-Feb-17 16:33N 67°17' E 014°23'0 0.0
2017-Feb-17 15:33N 67°17' E 014°23'0 0.0
2017-Feb-17 14:33N 67°17' E 014°23'0 0.0
2017-Feb-17 13:33N 67°17' E 014°23'0 0.0
2017-Feb-17 12:33N 67°17' E 014°23'0 0.0
2017-Feb-17 11:33N 67°17' E 014°23'0 0.0
2017-Feb-17 10:33N 67°17' E 014°23'0 0.0
2017-Feb-17 09:33N 67°17' E 014°23'0 0.0
2017-Feb-17 08:33N 67°17' E 014°23'0 0.0
2017-Feb-17 07:33N 67°17' E 014°23'0 0.0
2017-Feb-17 06:33N 67°17' E 014°23'0 0.0
2017-Feb-17 05:33N 67°17' E 014°23'0 0.0
2017-Feb-17 04:33N 67°17' E 014°23'0 0.0
2017-Feb-17 03:33N 67°17' E 014°23'0 0.0
2017-Feb-17 02:33N 67°17' E 014°23'0 0.0
2017-Feb-17 01:33N 67°17' E 014°23'0 0.0
2017-Feb-17 00:33N 67°17' E 014°23'0 0.0
2017-Feb-16 23:33N 67°17' E 014°23'0 0.0
2017-Feb-16 22:33N 67°17' E 014°23'0 0.0
2017-Feb-16 21:33N 67°17' E 014°23'0 0.0
2017-Feb-16 20:33N 67°17' E 014°23'0 0.0
2017-Feb-16 19:33N 67°17' E 014°23'0 0.0
2017-Feb-16 18:33N 67°17' E 014°23'0 0.0
2017-Feb-16 17:33N 67°17' E 014°23'0 0.0
2017-Feb-16 16:33N 67°17' E 014°23'0 0.0
2017-Feb-16 15:33N 67°17' E 014°23'0 0.0
2017-Feb-16 14:33N 67°17' E 014°23'0 0.0
2017-Feb-16 13:33N 67°17' E 014°23'0 0.0
2017-Feb-16 12:33N 67°17' E 014°23'0 0.0
2017-Feb-16 11:33N 67°17' E 014°23'0 0.0
2017-Feb-16 10:33N 67°17' E 014°23'0 0.0
2017-Feb-16 09:33N 67°17' E 014°23'0 0.0
2017-Feb-16 08:33N 67°17' E 014°23'0 0.0
2017-Feb-16 07:33N 67°17' E 014°23'0 0.0
2017-Feb-16 06:33N 67°17' E 014°23'0 0.0
2017-Feb-16 05:33N 67°17' E 014°23'0 0.0
2017-Feb-16 04:33N 67°17' E 014°23'0 0.0
2017-Feb-16 03:33N 67°17' E 014°23'0 0.0
2017-Feb-16 02:33N 67°17' E 014°23'0 0.0
2017-Feb-16 01:32N 67°17' E 014°23'0 0.0
2017-Feb-16 00:33N 67°17' E 014°23'0 0.0
2017-Feb-15 23:33N 67°17' E 014°23'0 0.0
2017-Feb-15 22:33N 67°17' E 014°23'0 0.0
2017-Feb-15 21:33N 67°17' E 014°23'0 0.0
2017-Feb-15 20:33N 67°17' E 014°23'0 0.0
2017-Feb-15 19:33N 67°17' E 014°23'0 0.0
2017-Feb-15 18:29N 67°17' E 014°23'0 0.0
2017-Feb-15 17:32N 67°17' E 014°23'0 0.0
2017-Feb-15 16:32N 67°17' E 014°23'0 0.0
2017-Feb-15 15:32N 67°17' E 014°23'0 0.0
2017-Feb-15 14:33N 67°17' E 014°23'0 0.0
2017-Feb-15 13:32N 67°17' E 014°23'0 0.0
2017-Feb-15 12:32N 67°17' E 014°23'0 0.0
2017-Feb-15 11:32N 67°17' E 014°23'0 0.0
2017-Feb-15 10:32N 67°17' E 014°23'0 0.0
2017-Feb-15 09:33N 67°17' E 014°23'0 0.0
2017-Feb-15 08:32N 67°17' E 014°23'0 0.0
2017-Feb-15 07:33N 67°17' E 014°23'0 0.0
2017-Feb-15 06:33N 67°17' E 014°23'0 0.0
2017-Feb-15 05:32N 67°17' E 014°23'0 0.0
2017-Feb-15 04:32N 67°17' E 014°23'0 0.0
2017-Feb-15 03:32N 67°17' E 014°23'0 0.0
2017-Feb-15 02:32N 67°17' E 014°23'0 0.0
2017-Feb-15 01:32N 67°17' E 014°23'0 0.0
2017-Feb-15 00:32N 67°17' E 014°23'0 0.0
2017-Feb-14 23:32N 67°17' E 014°23'0 0.0
2017-Feb-14 22:32N 67°17' E 014°23'0 0.0
2017-Feb-14 21:32N 67°17' E 014°23'0 0.0
2017-Feb-14 20:32N 67°17' E 014°23'0 0.0
2017-Feb-14 19:32N 67°17' E 014°23'0 0.0
2017-Feb-14 18:32N 67°17' E 014°23'0 0.0
2017-Feb-14 17:32N 67°17' E 014°23'0 0.0
2017-Feb-14 16:32N 67°17' E 014°23'0 0.0
2017-Feb-14 15:32N 67°17' E 014°23'0 0.0
2017-Feb-14 14:32N 67°17' E 014°23'0 0.0
2017-Feb-14 13:32N 67°17' E 014°23'0 0.0
2017-Feb-14 12:32N 67°17' E 014°23'0 0.0
2017-Feb-14 11:32N 67°17' E 014°23'0 0.0
2017-Feb-14 10:32N 67°17' E 014°23'0 0.0
2017-Feb-14 09:32N 67°17' E 014°23'0 0.0
2017-Feb-14 08:32N 67°17' E 014°23'0 0.0
2017-Feb-14 07:32N 67°17' E 014°23'0 0.0
2017-Feb-14 06:32N 67°17' E 014°23'0 0.0
2017-Feb-14 05:32N 67°17' E 014°23'0 0.0
2017-Feb-14 04:32N 67°17' E 014°23'0 0.0
2017-Feb-14 03:32N 67°17' E 014°23'0 0.0
2017-Feb-14 02:32N 67°17' E 014°23'0 0.0
2017-Feb-14 01:32N 67°17' E 014°23'0 0.0
2017-Feb-14 00:32N 67°17' E 014°23'0 0.0
2017-Feb-13 23:32N 67°17' E 014°23'0 0.0
2017-Feb-13 22:32N 67°17' E 014°23'0 0.0
2017-Feb-13 21:32N 67°17' E 014°23'0 0.0
2017-Feb-13 20:32N 67°17' E 014°23'0 0.0
2017-Feb-13 19:32N 67°17' E 014°23'0 0.0
2017-Feb-13 18:32N 67°17' E 014°23'0 0.0
2017-Feb-13 17:32N 67°17' E 014°23'0 0.0
2017-Feb-13 16:32N 67°17' E 014°23'0 0.0
2017-Feb-13 15:32N 67°17' E 014°23'0 0.0
2017-Feb-13 14:32N 67°17' E 014°23'0 0.0
2017-Feb-13 13:32N 67°17' E 014°23'0 0.0
2017-Feb-13 12:32N 67°17' E 014°23'0 0.0
2017-Feb-13 11:32N 67°17' E 014°23'0 0.0
2017-Feb-13 10:32N 67°17' E 014°23'0 0.0
2017-Feb-13 09:32N 67°17' E 014°23'0 0.0
2017-Feb-13 08:32N 67°17' E 014°23'0 0.0
2017-Feb-13 07:29N 67°17' E 014°23'0 0.0
2017-Feb-13 06:32N 67°17' E 014°23'0 0.0
2017-Feb-13 05:32N 67°17' E 014°23'0 0.0
2017-Feb-13 04:32N 67°17' E 014°23'0 0.0
2017-Feb-13 03:32N 67°17' E 014°23'0 0.0
2017-Feb-13 02:32N 67°17' E 014°23'0 0.0
2017-Feb-13 01:32N 67°17' E 014°23'0 0.0
2017-Feb-13 00:32N 67°17' E 014°23'0 0.0
2017-Feb-12 23:32N 67°17' E 014°23'0 0.0
2017-Feb-12 22:32N 67°17' E 014°23'0 0.0
2017-Feb-12 21:32N 67°17' E 014°23'0 0.0
2017-Feb-12 20:32N 67°17' E 014°23'0 0.0
2017-Feb-12 19:32N 67°17' E 014°23'0 0.0
2017-Feb-12 18:32N 67°17' E 014°23'0 0.0
2017-Feb-12 17:32N 67°17' E 014°23'0 0.0
2017-Feb-12 16:32N 67°17' E 014°23'0 0.0
2017-Feb-12 15:32N 67°17' E 014°23'  
Track history (hours):
 
Tides and Currents Weather Stations Pressure Air Temp Water Temp Dewpoint Dewpoint Depression Visibility Wind Speed Wind Dir Waves Ship Positions

Stottfjord

Last reported at 2017-Feb-22 15:20 UTC. Time now 2017-Feb-23 11:38 UTC.
Position N 69°23' E 016°04'.

Length 28 m; draft 5.3 m.

Type: Fishing. MMSI: 257580600.

Date/timePositionNaut miles runAvg speedWind from/ knotsBaromVisibWave heightAir tempDewpointWater temp
2017-Feb-22 15:20N 69°23' E 016°04'2 1.1
2017-Feb-22 13:17N 69°24' E 016°09'1 1.2
2017-Feb-22 12:27N 69°24' E 016°06'0 0.0
2017-Feb-22 11:13N 69°24' E 016°06'1 1.5
2017-Feb-22 10:31N 69°24' E 016°03'106 2.6
2017-Feb-20 17:23N 67°44' E 014°31'16 8.7
2017-Feb-20 15:33N 67°28' E 014°28'9 8.7
2017-Feb-20 14:33N 67°20' E 014°23'2 2.4
2017-Feb-20 13:33N 67°17' E 014°23'0 0.1
2017-Feb-20 12:33N 67°17' E 014°23'0 0.1
2017-Feb-20 11:33N 67°17' E 014°23'0 0.0
2017-Feb-20 10:33N 67°17' E 014°23'0 0.0
2017-Feb-20 09:33N 67°17' E 014°23'0 0.0
2017-Feb-20 08:33N 67°17' E 014°23'0 0.0
2017-Feb-20 07:33N 67°17' E 014°23'0 0.0
2017-Feb-20 06:33N 67°17' E 014°23'0 0.0
2017-Feb-20 05:33N 67°17' E 014°23'0 0.0
2017-Feb-20 04:33N 67°17' E 014°23'0 0.0
2017-Feb-20 03:33N 67°17' E 014°23'0 0.0
2017-Feb-20 02:33N 67°17' E 014°23'0 0.0
2017-Feb-20 01:33N 67°17' E 014°23'0 0.0
2017-Feb-20 00:33N 67°17' E 014°23'0 0.0
2017-Feb-19 23:33N 67°17' E 014°23'0 0.0
2017-Feb-19 22:33N 67°17' E 014°23'0 0.0
2017-Feb-19 21:33N 67°17' E 014°23'0 0.0
2017-Feb-19 20:33N 67°17' E 014°23'0 0.0
2017-Feb-19 19:33N 67°17' E 014°23'0 0.0
2017-Feb-19 18:33N 67°17' E 014°23'0 0.0
2017-Feb-19 17:33N 67°17' E 014°23'0 0.0
2017-Feb-19 16:33N 67°17' E 014°23'0 0.0
2017-Feb-19 15:33N 67°17' E 014°23'0 0.0
2017-Feb-19 14:30N 67°17' E 014°23'0 0.0
2017-Feb-19 13:33N 67°17' E 014°23'0 0.0
2017-Feb-19 12:33N 67°17' E 014°23'0 0.0
2017-Feb-19 11:33N 67°17' E 014°23'0 0.0
2017-Feb-19 10:33N 67°17' E 014°23'0 0.0
2017-Feb-19 09:33N 67°17' E 014°23'0 0.0
2017-Feb-19 08:33N 67°17' E 014°23'0 0.0
2017-Feb-19 07:33N 67°17' E 014°23'0 0.0
2017-Feb-19 06:33N 67°17' E 014°23'0 0.0
2017-Feb-19 05:33N 67°17' E 014°23'0 0.0
2017-Feb-19 04:33N 67°17' E 014°23'0 0.0
2017-Feb-19 03:33N 67°17' E 014°23'0 0.0
2017-Feb-19 02:33N 67°17' E 014°23'0 0.0
2017-Feb-19 01:33N 67°17' E 014°23'0 0.0
2017-Feb-19 00:33N 67°17' E 014°23'0 0.0
2017-Feb-18 23:33N 67°17' E 014°23'0 0.0
2017-Feb-18 22:33N 67°17' E 014°23'0 0.0
2017-Feb-18 21:33N 67°17' E 014°23'0 0.0
2017-Feb-18 20:33N 67°17' E 014°23'0 0.0
2017-Feb-18 19:33N 67°17' E 014°23'0 0.0
2017-Feb-18 18:33N 67°17' E 014°23'0 0.0
2017-Feb-18 17:33N 67°17' E 014°23'0 0.0
2017-Feb-18 16:33N 67°17' E 014°23'0 0.0
2017-Feb-18 15:33N 67°17' E 014°23'0 0.0
2017-Feb-18 14:33N 67°17' E 014°23'0 0.0
2017-Feb-18 13:33N 67°17' E 014°23'0 0.0
2017-Feb-18 12:33N 67°17' E 014°23'0 0.0
2017-Feb-18 11:33N 67°17' E 014°23'0 0.0
2017-Feb-18 10:33N 67°17' E 014°23'0 0.0
2017-Feb-18 09:33N 67°17' E 014°23'0 0.0
2017-Feb-18 08:33N 67°17' E 014°23'0 0.0
2017-Feb-18 07:33N 67°17' E 014°23'0 0.0
2017-Feb-18 06:33N 67°17' E 014°23'0 0.0
2017-Feb-18 05:33N 67°17' E 014°23'0 0.0
2017-Feb-18 04:33N 67°17' E 014°23'0 0.0
2017-Feb-18 03:33N 67°17' E 014°23'0 0.0
2017-Feb-18 02:33N 67°17' E 014°23'0 0.0
2017-Feb-18 01:33N 67°17' E 014°23'0 0.0
2017-Feb-18 00:33N 67°17' E 014°23'0 0.0
2017-Feb-17 23:33N 67°17' E 014°23'0 0.0
2017-Feb-17 22:33N 67°17' E 014°23'0 0.0
2017-Feb-17 21:33N 67°17' E 014°23'0 0.0
2017-Feb-17 20:33N 67°17' E 014°23'0 0.0
2017-Feb-17 19:33N 67°17' E 014°23'0 0.0
2017-Feb-17 18:33N 67°17' E 014°23'0 0.0
2017-Feb-17 17:33N 67°17' E 014°23'0 0.0
2017-Feb-17 16:33N 67°17' E 014°23'0 0.0
2017-Feb-17 15:33N 67°17' E 014°23'0 0.0
2017-Feb-17 14:33N 67°17' E 014°23'0 0.0
2017-Feb-17 13:33N 67°17' E 014°23'0 0.0
2017-Feb-17 12:33N 67°17' E 014°23'0 0.0
2017-Feb-17 11:33N 67°17' E 014°23'0 0.0
2017-Feb-17 10:33N 67°17' E 014°23'0 0.0
2017-Feb-17 09:33N 67°17' E 014°23'0 0.0
2017-Feb-17 08:33N 67°17' E 014°23'0 0.0
2017-Feb-17 07:33N 67°17' E 014°23'0 0.0
2017-Feb-17 06:33N 67°17' E 014°23'0 0.0
2017-Feb-17 05:33N 67°17' E 014°23'0 0.0
2017-Feb-17 04:33N 67°17' E 014°23'0 0.0
2017-Feb-17 03:33N 67°17' E 014°23'0 0.0
2017-Feb-17 02:33N 67°17' E 014°23'0 0.0
2017-Feb-17 01:33N 67°17' E 014°23'0 0.0
2017-Feb-17 00:33N 67°17' E 014°23'0 0.0
2017-Feb-16 23:33N 67°17' E 014°23'0 0.0
2017-Feb-16 22:33N 67°17' E 014°23'0 0.0
2017-Feb-16 21:33N 67°17' E 014°23'0 0.0
2017-Feb-16 20:33N 67°17' E 014°23'0 0.0
2017-Feb-16 19:33N 67°17' E 014°23'0 0.0
2017-Feb-16 18:33N 67°17' E 014°23'0 0.0
2017-Feb-16 17:33N 67°17' E 014°23'0 0.0
2017-Feb-16 16:33N 67°17' E 014°23'0 0.0
2017-Feb-16 15:33N 67°17' E 014°23'0 0.0
2017-Feb-16 14:33N 67°17' E 014°23'0 0.0
2017-Feb-16 13:33N 67°17' E 014°23'0 0.0
2017-Feb-16 12:33N 67°17' E 014°23'0 0.0
2017-Feb-16 11:33N 67°17' E 014°23'0 0.0
2017-Feb-16 10:33N 67°17' E 014°23'0 0.0
2017-Feb-16 09:33N 67°17' E 014°23'0 0.0
2017-Feb-16 08:33N 67°17' E 014°23'0 0.0
2017-Feb-16 07:33N 67°17' E 014°23'0 0.0
2017-Feb-16 06:33N 67°17' E 014°23'0 0.0
2017-Feb-16 05:33N 67°17' E 014°23'0 0.0
2017-Feb-16 04:33N 67°17' E 014°23'0 0.0
2017-Feb-16 03:33N 67°17' E 014°23'0 0.0
2017-Feb-16 02:33N 67°17' E 014°23'0 0.0
2017-Feb-16 01:32N 67°17' E 014°23'0 0.0
2017-Feb-16 00:33N 67°17' E 014°23'0 0.0
2017-Feb-15 23:33N 67°17' E 014°23'0 0.0
2017-Feb-15 22:33N 67°17' E 014°23'0 0.0
2017-Feb-15 21:33N 67°17' E 014°23'0 0.0
2017-Feb-15 20:33N 67°17' E 014°23'0 0.0
2017-Feb-15 19:33N 67°17' E 014°23'0 0.0
2017-Feb-15 18:29N 67°17' E 014°23'0 0.0
2017-Feb-15 17:32N 67°17' E 014°23'0 0.0
2017-Feb-15 16:32N 67°17' E 014°23'0 0.0
2017-Feb-15 15:32N 67°17' E 014°23'0 0.0
2017-Feb-15 14:33N 67°17' E 014°23'0 0.0
2017-Feb-15 13:32N 67°17' E 014°23'0 0.0
2017-Feb-15 12:32N 67°17' E 014°23'0 0.0
2017-Feb-15 11:32N 67°17' E 014°23'0 0.0
2017-Feb-15 10:32N 67°17' E 014°23'0 0.0
2017-Feb-15 09:33N 67°17' E 014°23'0 0.0
2017-Feb-15 08:32N 67°17' E 014°23'0 0.0
2017-Feb-15 07:33N 67°17' E 014°23'0 0.0
2017-Feb-15 06:33N 67°17' E 014°23'0 0.0
2017-Feb-15 05:32N 67°17' E 014°23'0 0.0
2017-Feb-15 04:32N 67°17' E 014°23'0 0.0
2017-Feb-15 03:32N 67°17' E 014°23'0 0.0
2017-Feb-15 02:32N 67°17' E 014°23'0 0.0
2017-Feb-15 01:32N 67°17' E 014°23'0 0.0
2017-Feb-15 00:32N 67°17' E 014°23'0 0.0
2017-Feb-14 23:32N 67°17' E 014°23'0 0.0
2017-Feb-14 22:32N 67°17' E 014°23'0 0.0
2017-Feb-14 21:32N 67°17' E 014°23'0 0.0
2017-Feb-14 20:32N 67°17' E 014°23'0 0.0
2017-Feb-14 19:32N 67°17' E 014°23'0 0.0
2017-Feb-14 18:32N 67°17' E 014°23'0 0.0
2017-Feb-14 17:32N 67°17' E 014°23'0 0.0
2017-Feb-14 16:32N 67°17' E 014°23'0 0.0
2017-Feb-14 15:32N 67°17' E 014°23'0 0.0
2017-Feb-14 14:32N 67°17' E 014°23'0 0.0
2017-Feb-14 13:32N 67°17' E 014°23'0 0.0
2017-Feb-14 12:32N 67°17' E 014°23'0 0.0
2017-Feb-14 11:32N 67°17' E 014°23'0 0.0
2017-Feb-14 10:32N 67°17' E 014°23'0 0.0
2017-Feb-14 09:32N 67°17' E 014°23'0 0.0
2017-Feb-14 08:32N 67°17' E 014°23'0 0.0
2017-Feb-14 07:32N 67°17' E 014°23'0 0.0
2017-Feb-14 06:32N 67°17' E 014°23'0 0.0
2017-Feb-14 05:32N 67°17' E 014°23'0 0.0
2017-Feb-14 04:32N 67°17' E 014°23'0 0.0
2017-Feb-14 03:32N 67°17' E 014°23'0 0.0
2017-Feb-14 02:32N 67°17' E 014°23'0 0.0
2017-Feb-14 01:32N 67°17' E 014°23'0 0.0
2017-Feb-14 00:32N 67°17' E 014°23'0 0.0
2017-Feb-13 23:32N 67°17' E 014°23'0 0.0
2017-Feb-13 22:32N 67°17' E 014°23'0 0.0
2017-Feb-13 21:32N 67°17' E 014°23'0 0.0
2017-Feb-13 20:32N 67°17' E 014°23'0 0.0
2017-Feb-13 19:32N 67°17' E 014°23'0 0.0
2017-Feb-13 18:32N 67°17' E 014°23'0 0.0
2017-Feb-13 17:32N 67°17' E 014°23'0 0.0
2017-Feb-13 16:32N 67°17' E 014°23'0 0.0
2017-Feb-13 15:32N 67°17' E 014°23'0 0.0
2017-Feb-13 14:32N 67°17' E 014°23'0 0.0
2017-Feb-13 13:32N 67°17' E 014°23'0 0.0
2017-Feb-13 12:32N 67°17' E 014°23'0 0.0
2017-Feb-13 11:32N 67°17' E 014°23'0 0.0
2017-Feb-13 10:32N 67°17' E 014°23'0 0.0
2017-Feb-13 09:32N 67°17' E 014°23'0 0.0
2017-Feb-13 08:32N 67°17' E 014°23'0 0.0
2017-Feb-13 07:29N 67°17' E 014°23'0 0.0
2017-Feb-13 06:32N 67°17' E 014°23'0 0.0
2017-Feb-13 05:32N 67°17' E 014°23'0 0.0
2017-Feb-13 04:32N 67°17' E 014°23'0 0.0
2017-Feb-13 03:32N 67°17' E 014°23'0 0.0
2017-Feb-13 02:32N 67°17' E 014°23'0 0.0
2017-Feb-13 01:32N 67°17' E 014°23'0 0.0
2017-Feb-13 00:32N 67°17' E 014°23'0 0.0
2017-Feb-12 23:32N 67°17' E 014°23'0 0.0
2017-Feb-12 22:32N 67°17' E 014°23'0 0.0
2017-Feb-12 21:32N 67°17' E 014°23'0 0.0
2017-Feb-12 20:32N 67°17' E 014°23'0 0.0
2017-Feb-12 19:32N 67°17' E 014°23'0 0.0
2017-Feb-12 18:32N 67°17' E 014°23'0 0.0
2017-Feb-12 17:32N 67°17' E 014°23'0 0.0
2017-Feb-12 16:32N 67°17' E 014°23'0 0.0
2017-Feb-12 15:32N 67°17' E 014°23'  

Dump ship's entire track history